sensor_id;sensor_type;location;lat;lon;timestamp;P1;durP1;ratioP1;P2;durP2;ratioP2
23262;SDS011;11800;49.830;9.922;2022-07-22T00:01:48;0.10;;;0.10;;
23262;SDS011;11800;49.830;9.922;2022-07-22T00:04:14;0.08;;;0.08;;
23262;SDS011;11800;49.830;9.922;2022-07-22T00:06:41;0.00;;;0.00;;
23262;SDS011;11800;49.830;9.922;2022-07-22T00:09:07;0.00;;;0.00;;
23262;SDS011;11800;49.830;9.922;2022-07-22T00:11:33;0.00;;;0.00;;
23262;SDS011;11800;49.830;9.922;2022-07-22T00:13:59;0.00;;;0.00;;
23262;SDS011;11800;49.830;9.922;2022-07-22T00:16:25;0.00;;;0.00;;
23262;SDS011;11800;49.830;9.922;2022-07-22T00:18:51;0.10;;;0.10;;
23262;SDS011;11800;49.830;9.922;2022-07-22T00:21:17;0.00;;;0.00;;
23262;SDS011;11800;49.830;9.922;2022-07-22T00:23:43;0.00;;;0.00;;
23262;SDS011;11800;49.830;9.922;2022-07-22T00:26:09;0.00;;;0.00;;
23262;SDS011;11800;49.830;9.922;2022-07-22T00:28:36;0.10;;;0.10;;
23262;SDS011;11800;49.830;9.922;2022-07-22T00:31:02;0.00;;;0.00;;
23262;SDS011;11800;49.830;9.922;2022-07-22T00:33:28;0.00;;;0.00;;
23262;SDS011;11800;49.830;9.922;2022-07-22T00:35:54;0.10;;;0.10;;
23262;SDS011;11800;49.830;9.922;2022-07-22T00:38:20;0.00;;;0.00;;
23262;SDS011;11800;49.830;9.922;2022-07-22T00:40:46;0.00;;;0.00;;
23262;SDS011;11800;49.830;9.922;2022-07-22T00:43:12;0.03;;;0.03;;
23262;SDS011;11800;49.830;9.922;2022-07-22T00:45:38;0.00;;;0.00;;
23262;SDS011;11800;49.830;9.922;2022-07-22T00:48:05;0.00;;;0.00;;
23262;SDS011;11800;49.830;9.922;2022-07-22T00:50:31;0.10;;;0.10;;
23262;SDS011;11800;49.830;9.922;2022-07-22T00:52:57;0.00;;;0.00;;
23262;SDS011;11800;49.830;9.922;2022-07-22T00:55:23;0.00;;;0.00;;
23262;SDS011;11800;49.830;9.922;2022-07-22T00:57:49;0.08;;;0.08;;
23262;SDS011;11800;49.830;9.922;2022-07-22T01:00:17;0.00;;;0.00;;
23262;SDS011;11800;49.830;9.922;2022-07-22T01:02:43;0.00;;;0.00;;
23262;SDS011;11800;49.830;9.922;2022-07-22T01:05:09;0.00;;;0.00;;
23262;SDS011;11800;49.830;9.922;2022-07-22T01:07:36;0.10;;;0.10;;
23262;SDS011;11800;49.830;9.922;2022-07-22T01:10:03;0.10;;;0.10;;
23262;SDS011;11800;49.830;9.922;2022-07-22T01:12:29;0.00;;;0.00;;
23262;SDS011;11800;49.830;9.922;2022-07-22T01:14:55;0.03;;;0.03;;
23262;SDS011;11800;49.830;9.922;2022-07-22T01:17:21;0.10;;;0.10;;
23262;SDS011;11800;49.830;9.922;2022-07-22T01:19:47;0.00;;;0.00;;
23262;SDS011;11800;49.830;9.922;2022-07-22T01:22:13;0.00;;;0.00;;
23262;SDS011;11800;49.830;9.922;2022-07-22T01:24:39;0.10;;;0.10;;
23262;SDS011;11800;49.830;9.922;2022-07-22T01:27:05;0.00;;;0.00;;
23262;SDS011;11800;49.830;9.922;2022-07-22T01:29:31;0.00;;;0.00;;
23262;SDS011;11800;49.830;9.922;2022-07-22T01:31:58;0.10;;;0.10;;
23262;SDS011;11800;49.830;9.922;2022-07-22T01:34:24;0.00;;;0.00;;
23262;SDS011;11800;49.830;9.922;2022-07-22T01:36:50;0.00;;;0.00;;
23262;SDS011;11800;49.830;9.922;2022-07-22T01:39:16;0.00;;;0.00;;
23262;SDS011;11800;49.830;9.922;2022-07-22T01:41:43;0.00;;;0.00;;
23262;SDS011;11800;49.830;9.922;2022-07-22T01:44:09;0.00;;;0.00;;
23262;SDS011;11800;49.830;9.922;2022-07-22T01:46:35;0.00;;;0.00;;
23262;SDS011;11800;49.830;9.922;2022-07-22T01:49:01;0.00;;;0.00;;
23262;SDS011;11800;49.830;9.922;2022-07-22T01:51:27;0.10;;;0.10;;
23262;SDS011;11800;49.830;9.922;2022-07-22T01:53:53;0.10;;;0.10;;
23262;SDS011;11800;49.830;9.922;2022-07-22T01:56:19;0.00;;;0.00;;
23262;SDS011;11800;49.830;9.922;2022-07-22T01:58:45;0.05;;;0.05;;
23262;SDS011;11800;49.830;9.922;2022-07-22T02:01:11;0.03;;;0.03;;
23262;SDS011;11800;49.830;9.922;2022-07-22T02:03:37;0.00;;;0.00;;
23262;SDS011;11800;49.830;9.922;2022-07-22T02:06:03;0.00;;;0.00;;
23262;SDS011;11800;49.830;9.922;2022-07-22T02:08:29;0.00;;;0.00;;
23262;SDS011;11800;49.830;9.922;2022-07-22T02:10:55;0.00;;;0.00;;
23262;SDS011;11800;49.830;9.922;2022-07-22T02:13:21;0.00;;;0.00;;
23262;SDS011;11800;49.830;9.922;2022-07-22T02:15:47;0.08;;;0.08;;
23262;SDS011;11800;49.830;9.922;2022-07-22T02:18:14;0.00;;;0.00;;
23262;SDS011;11800;49.830;9.922;2022-07-22T02:20:40;0.00;;;0.00;;
23262;SDS011;11800;49.830;9.922;2022-07-22T02:23:07;0.00;;;0.00;;
23262;SDS011;11800;49.830;9.922;2022-07-22T02:25:34;0.00;;;0.00;;
23262;SDS011;11800;49.830;9.922;2022-07-22T02:28:00;0.08;;;0.08;;
23262;SDS011;11800;49.830;9.922;2022-07-22T02:30:26;0.10;;;0.10;;
23262;SDS011;11800;49.830;9.922;2022-07-22T02:32:52;0.05;;;0.05;;
23262;SDS011;11800;49.830;9.922;2022-07-22T02:35:18;0.10;;;0.10;;
23262;SDS011;11800;49.830;9.922;2022-07-22T02:37:45;0.00;;;0.00;;
23262;SDS011;11800;49.830;9.922;2022-07-22T02:40:11;0.00;;;0.00;;
23262;SDS011;11800;49.830;9.922;2022-07-22T02:42:37;0.03;;;0.03;;
23262;SDS011;11800;49.830;9.922;2022-07-22T02:45:03;0.00;;;0.00;;
23262;SDS011;11800;49.830;9.922;2022-07-22T02:47:29;0.00;;;0.00;;
23262;SDS011;11800;49.830;9.922;2022-07-22T02:49:55;0.10;;;0.10;;
23262;SDS011;11800;49.830;9.922;2022-07-22T02:52:21;0.00;;;0.00;;
23262;SDS011;11800;49.830;9.922;2022-07-22T02:54:47;0.00;;;0.00;;
23262;SDS011;11800;49.830;9.922;2022-07-22T02:57:13;0.00;;;0.00;;
23262;SDS011;11800;49.830;9.922;2022-07-22T02:59:39;0.00;;;0.00;;
23262;SDS011;11800;49.830;9.922;2022-07-22T03:02:06;0.00;;;0.00;;
23262;SDS011;11800;49.830;9.922;2022-07-22T03:04:32;0.05;;;0.05;;
23262;SDS011;11800;49.830;9.922;2022-07-22T03:06:58;0.00;;;0.00;;
23262;SDS011;11800;49.830;9.922;2022-07-22T03:09:24;0.00;;;0.00;;
23262;SDS011;11800;49.830;9.922;2022-07-22T03:11:50;0.00;;;0.00;;
23262;SDS011;11800;49.830;9.922;2022-07-22T03:14:16;0.03;;;0.03;;
23262;SDS011;11800;49.830;9.922;2022-07-22T03:16:43;0.00;;;0.00;;
23262;SDS011;11800;49.830;9.922;2022-07-22T03:19:09;0.08;;;0.08;;
23262;SDS011;11800;49.830;9.922;2022-07-22T03:21:35;0.10;;;0.10;;
23262;SDS011;11800;49.830;9.922;2022-07-22T03:24:01;0.10;;;0.10;;
23262;SDS011;11800;49.830;9.922;2022-07-22T03:26:28;0.00;;;0.00;;
23262;SDS011;11800;49.830;9.922;2022-07-22T03:28:54;0.10;;;0.10;;
23262;SDS011;11800;49.830;9.922;2022-07-22T03:31:20;0.00;;;0.00;;
23262;SDS011;11800;49.830;9.922;2022-07-22T03:33:46;0.00;;;0.00;;
23262;SDS011;11800;49.830;9.922;2022-07-22T03:36:12;0.10;;;0.10;;
23262;SDS011;11800;49.830;9.922;2022-07-22T03:38:38;0.00;;;0.00;;
23262;SDS011;11800;49.830;9.922;2022-07-22T03:41:04;0.10;;;0.10;;
23262;SDS011;11800;49.830;9.922;2022-07-22T03:43:30;0.00;;;0.00;;
23262;SDS011;11800;49.830;9.922;2022-07-22T03:45:56;0.10;;;0.10;;
23262;SDS011;11800;49.830;9.922;2022-07-22T03:48:22;0.05;;;0.05;;
23262;SDS011;11800;49.830;9.922;2022-07-22T03:50:48;0.00;;;0.00;;
23262;SDS011;11800;49.830;9.922;2022-07-22T03:53:15;0.00;;;0.00;;
23262;SDS011;11800;49.830;9.922;2022-07-22T03:55:41;0.10;;;0.10;;
23262;SDS011;11800;49.830;9.922;2022-07-22T03:58:07;0.00;;;0.00;;
23262;SDS011;11800;49.830;9.922;2022-07-22T04:00:33;0.10;;;0.10;;
23262;SDS011;11800;49.830;9.922;2022-07-22T04:02:59;0.00;;;0.00;;
23262;SDS011;11800;49.830;9.922;2022-07-22T04:05:25;0.00;;;0.00;;
23262;SDS011;11800;49.830;9.922;2022-07-22T04:07:51;0.10;;;0.10;;
23262;SDS011;11800;49.830;9.922;2022-07-22T04:10:17;0.10;;;0.10;;
23262;SDS011;11800;49.830;9.922;2022-07-22T04:12:43;0.10;;;0.10;;
23262;SDS011;11800;49.830;9.922;2022-07-22T04:15:09;0.00;;;0.00;;
23262;SDS011;11800;49.830;9.922;2022-07-22T04:17:35;0.10;;;0.10;;
23262;SDS011;11800;49.830;9.922;2022-07-22T04:20:02;0.00;;;0.00;;
23262;SDS011;11800;49.830;9.922;2022-07-22T04:22:28;0.00;;;0.00;;
23262;SDS011;11800;49.830;9.922;2022-07-22T04:24:54;0.00;;;0.00;;
23262;SDS011;11800;49.830;9.922;2022-07-22T04:27:20;0.00;;;0.00;;
23262;SDS011;11800;49.830;9.922;2022-07-22T04:29:47;0.10;;;0.10;;
23262;SDS011;11800;49.830;9.922;2022-07-22T04:32:13;0.10;;;0.10;;
23262;SDS011;11800;49.830;9.922;2022-07-22T04:34:39;0.00;;;0.00;;
23262;SDS011;11800;49.830;9.922;2022-07-22T04:37:05;0.00;;;0.00;;
23262;SDS011;11800;49.830;9.922;2022-07-22T04:39:31;0.00;;;0.00;;
23262;SDS011;11800;49.830;9.922;2022-07-22T04:41:57;0.00;;;0.00;;
23262;SDS011;11800;49.830;9.922;2022-07-22T04:44:23;0.10;;;0.10;;
23262;SDS011;11800;49.830;9.922;2022-07-22T04:46:49;0.00;;;0.00;;
23262;SDS011;11800;49.830;9.922;2022-07-22T04:49:15;0.05;;;0.05;;
23262;SDS011;11800;49.830;9.922;2022-07-22T04:51:41;0.00;;;0.00;;
23262;SDS011;11800;49.830;9.922;2022-07-22T04:54:07;0.10;;;0.10;;
23262;SDS011;11800;49.830;9.922;2022-07-22T04:56:33;0.00;;;0.00;;
23262;SDS011;11800;49.830;9.922;2022-07-22T04:58:59;0.00;;;0.00;;
23262;SDS011;11800;49.830;9.922;2022-07-22T05:01:25;0.00;;;0.00;;
23262;SDS011;11800;49.830;9.922;2022-07-22T05:03:51;0.10;;;0.10;;
23262;SDS011;11800;49.830;9.922;2022-07-22T05:06:18;0.00;;;0.00;;
23262;SDS011;11800;49.830;9.922;2022-07-22T05:08:44;0.00;;;0.00;;
23262;SDS011;11800;49.830;9.922;2022-07-22T05:11:10;0.10;;;0.10;;
23262;SDS011;11800;49.830;9.922;2022-07-22T05:13:37;0.00;;;0.00;;
23262;SDS011;11800;49.830;9.922;2022-07-22T05:16:03;0.00;;;0.00;;
23262;SDS011;11800;49.830;9.922;2022-07-22T05:18:29;0.00;;;0.00;;
23262;SDS011;11800;49.830;9.922;2022-07-22T05:20:55;0.00;;;0.00;;
23262;SDS011;11800;49.830;9.922;2022-07-22T05:23:22;0.00;;;0.00;;
23262;SDS011;11800;49.830;9.922;2022-07-22T05:25:48;0.00;;;0.00;;
23262;SDS011;11800;49.830;9.922;2022-07-22T05:28:14;0.00;;;0.00;;
23262;SDS011;11800;49.830;9.922;2022-07-22T05:30:40;0.05;;;0.05;;
23262;SDS011;11800;49.830;9.922;2022-07-22T05:33:06;0.00;;;0.00;;
23262;SDS011;11800;49.830;9.922;2022-07-22T05:35:32;0.10;;;0.10;;
23262;SDS011;11800;49.830;9.922;2022-07-22T05:37:58;0.00;;;0.00;;
23262;SDS011;11800;49.830;9.922;2022-07-22T05:40:24;0.10;;;0.10;;
23262;SDS011;11800;49.830;9.922;2022-07-22T05:42:50;0.00;;;0.00;;
23262;SDS011;11800;49.830;9.922;2022-07-22T05:45:16;0.10;;;0.10;;
23262;SDS011;11800;49.830;9.922;2022-07-22T05:47:42;0.10;;;0.10;;
23262;SDS011;11800;49.830;9.922;2022-07-22T05:50:08;0.00;;;0.00;;
23262;SDS011;11800;49.830;9.922;2022-07-22T05:52:37;0.00;;;0.00;;
23262;SDS011;11800;49.830;9.922;2022-07-22T05:55:04;0.00;;;0.00;;
23262;SDS011;11800;49.830;9.922;2022-07-22T05:57:30;0.00;;;0.00;;
23262;SDS011;11800;49.830;9.922;2022-07-22T05:59:56;0.10;;;0.10;;
23262;SDS011;11800;49.830;9.922;2022-07-22T06:02:22;0.00;;;0.00;;
23262;SDS011;11800;49.830;9.922;2022-07-22T06:04:48;0.00;;;0.00;;
23262;SDS011;11800;49.830;9.922;2022-07-22T06:07:14;0.10;;;0.10;;
23262;SDS011;11800;49.830;9.922;2022-07-22T06:09:40;0.00;;;0.00;;
23262;SDS011;11800;49.830;9.922;2022-07-22T06:12:07;0.00;;;0.00;;
23262;SDS011;11800;49.830;9.922;2022-07-22T06:14:33;0.00;;;0.00;;
23262;SDS011;11800;49.830;9.922;2022-07-22T06:17:01;0.10;;;0.10;;
23262;SDS011;11800;49.830;9.922;2022-07-22T06:19:27;0.03;;;0.03;;
23262;SDS011;11800;49.830;9.922;2022-07-22T06:21:54;0.10;;;0.10;;
23262;SDS011;11800;49.830;9.922;2022-07-22T06:24:20;0.10;;;0.10;;
23262;SDS011;11800;49.830;9.922;2022-07-22T06:26:46;0.00;;;0.00;;
23262;SDS011;11800;49.830;9.922;2022-07-22T06:29:13;0.00;;;0.00;;
23262;SDS011;11800;49.830;9.922;2022-07-22T06:31:39;0.00;;;0.00;;
23262;SDS011;11800;49.830;9.922;2022-07-22T06:34:05;0.10;;;0.10;;
23262;SDS011;11800;49.830;9.922;2022-07-22T06:36:31;0.00;;;0.00;;
23262;SDS011;11800;49.830;9.922;2022-07-22T06:38:58;0.00;;;0.00;;
23262;SDS011;11800;49.830;9.922;2022-07-22T06:41:24;0.00;;;0.00;;
23262;SDS011;11800;49.830;9.922;2022-07-22T06:43:50;0.10;;;0.10;;
23262;SDS011;11800;49.830;9.922;2022-07-22T06:46:17;0.03;;;0.03;;
23262;SDS011;11800;49.830;9.922;2022-07-22T06:48:43;0.10;;;0.10;;
23262;SDS011;11800;49.830;9.922;2022-07-22T06:51:09;0.03;;;0.03;;
23262;SDS011;11800;49.830;9.922;2022-07-22T06:53:35;0.00;;;0.00;;
23262;SDS011;11800;49.830;9.922;2022-07-22T06:56:01;0.00;;;0.00;;
23262;SDS011;11800;49.830;9.922;2022-07-22T06:58:27;0.05;;;0.05;;
23262;SDS011;11800;49.830;9.922;2022-07-22T07:00:53;0.00;;;0.00;;
23262;SDS011;11800;49.830;9.922;2022-07-22T07:03:19;0.10;;;0.10;;
23262;SDS011;11800;49.830;9.922;2022-07-22T07:05:46;0.00;;;0.00;;
23262;SDS011;11800;49.830;9.922;2022-07-22T07:08:12;0.10;;;0.10;;
23262;SDS011;11800;49.830;9.922;2022-07-22T07:10:38;0.00;;;0.00;;
23262;SDS011;11800;49.830;9.922;2022-07-22T07:13:04;0.00;;;0.00;;
23262;SDS011;11800;49.830;9.922;2022-07-22T07:15:30;0.00;;;0.00;;
23262;SDS011;11800;49.830;9.922;2022-07-22T07:17:56;0.00;;;0.00;;
23262;SDS011;11800;49.830;9.922;2022-07-22T07:20:23;0.00;;;0.00;;
23262;SDS011;11800;49.830;9.922;2022-07-22T07:22:49;0.00;;;0.00;;
23262;SDS011;11800;49.830;9.922;2022-07-22T07:25:15;0.10;;;0.10;;
23262;SDS011;11800;49.830;9.922;2022-07-22T07:27:42;0.00;;;0.00;;
23262;SDS011;11800;49.830;9.922;2022-07-22T07:30:08;0.00;;;0.00;;
23262;SDS011;11800;49.830;9.922;2022-07-22T07:32:35;0.00;;;0.00;;
23262;SDS011;11800;49.830;9.922;2022-07-22T07:35:01;0.05;;;0.05;;
23262;SDS011;11800;49.830;9.922;2022-07-22T07:37:27;0.00;;;0.00;;
23262;SDS011;11800;49.830;9.922;2022-07-22T07:39:53;0.00;;;0.00;;
23262;SDS011;11800;49.830;9.922;2022-07-22T07:42:19;0.10;;;0.10;;
23262;SDS011;11800;49.830;9.922;2022-07-22T07:44:45;0.00;;;0.00;;
23262;SDS011;11800;49.830;9.922;2022-07-22T07:47:11;0.10;;;0.10;;
23262;SDS011;11800;49.830;9.922;2022-07-22T07:49:42;0.00;;;0.00;;
23262;SDS011;11800;49.830;9.922;2022-07-22T07:52:08;0.05;;;0.05;;
23262;SDS011;11800;49.830;9.922;2022-07-22T07:54:34;0.10;;;0.10;;
23262;SDS011;11800;49.830;9.922;2022-07-22T07:57:01;0.00;;;0.00;;
23262;SDS011;11800;49.830;9.922;2022-07-22T07:59:27;0.00;;;0.00;;
23262;SDS011;11800;49.830;9.922;2022-07-22T08:01:53;0.00;;;0.00;;
23262;SDS011;11800;49.830;9.922;2022-07-22T08:04:19;0.10;;;0.10;;
23262;SDS011;11800;49.830;9.922;2022-07-22T08:06:45;0.10;;;0.10;;
23262;SDS011;11800;49.830;9.922;2022-07-22T08:09:11;0.03;;;0.03;;
23262;SDS011;11800;49.830;9.922;2022-07-22T08:11:37;0.00;;;0.00;;
23262;SDS011;11800;49.830;9.922;2022-07-22T08:14:03;0.10;;;0.10;;
23262;SDS011;11800;49.830;9.922;2022-07-22T08:16:29;0.10;;;0.10;;
23262;SDS011;11800;49.830;9.922;2022-07-22T08:18:55;0.08;;;0.08;;
23262;SDS011;11800;49.830;9.922;2022-07-22T08:21:21;0.00;;;0.00;;
23262;SDS011;11800;49.830;9.922;2022-07-22T08:23:47;0.10;;;0.10;;
23262;SDS011;11800;49.830;9.922;2022-07-22T08:26:13;0.00;;;0.00;;
23262;SDS011;11800;49.830;9.922;2022-07-22T08:28:39;0.08;;;0.08;;
23262;SDS011;11800;49.830;9.922;2022-07-22T08:31:05;0.05;;;0.05;;
23262;SDS011;11800;49.830;9.922;2022-07-22T08:33:31;0.10;;;0.10;;
23262;SDS011;11800;49.830;9.922;2022-07-22T08:35:58;0.00;;;0.00;;
23262;SDS011;11800;49.830;9.922;2022-07-22T08:38:24;0.10;;;0.10;;
23262;SDS011;11800;49.830;9.922;2022-07-22T08:40:50;0.00;;;0.00;;
23262;SDS011;11800;49.830;9.922;2022-07-22T08:43:19;0.10;;;0.10;;
23262;SDS011;11800;49.830;9.922;2022-07-22T08:45:45;0.10;;;0.10;;
23262;SDS011;11800;49.830;9.922;2022-07-22T08:48:13;0.10;;;0.10;;
23262;SDS011;11800;49.830;9.922;2022-07-22T08:50:39;0.10;;;0.10;;
23262;SDS011;11800;49.830;9.922;2022-07-22T08:53:08;0.00;;;0.00;;
23262;SDS011;11800;49.830;9.922;2022-07-22T08:55:39;0.08;;;0.08;;
23262;SDS011;11800;49.830;9.922;2022-07-22T08:58:05;0.10;;;0.10;;
23262;SDS011;11800;49.830;9.922;2022-07-22T09:00:31;0.10;;;0.10;;
23262;SDS011;11800;49.830;9.922;2022-07-22T09:02:57;0.05;;;0.05;;
23262;SDS011;11800;49.830;9.922;2022-07-22T09:05:23;0.00;;;0.00;;
23262;SDS011;11800;49.830;9.922;2022-07-22T09:07:58;0.10;;;0.10;;
23262;SDS011;11800;49.830;9.922;2022-07-22T09:10:29;0.10;;;0.10;;
23262;SDS011;11800;49.830;9.922;2022-07-22T09:12:56;0.00;;;0.00;;
23262;SDS011;11800;49.830;9.922;2022-07-22T09:15:31;0.10;;;0.10;;
23262;SDS011;11800;49.830;9.922;2022-07-22T09:17:58;0.00;;;0.00;;
23262;SDS011;11800;49.830;9.922;2022-07-22T09:20:25;0.10;;;0.10;;
23262;SDS011;11800;49.830;9.922;2022-07-22T09:22:51;0.10;;;0.10;;
23262;SDS011;11800;49.830;9.922;2022-07-22T09:27:48;0.10;;;0.10;;
23262;SDS011;11800;49.830;9.922;2022-07-22T09:30:19;0.10;;;0.10;;
23262;SDS011;11800;49.830;9.922;2022-07-22T09:32:46;0.10;;;0.10;;
23262;SDS011;11800;49.830;9.922;2022-07-22T09:35:13;0.03;;;0.03;;
23262;SDS011;11800;49.830;9.922;2022-07-22T09:37:49;0.03;;;0.03;;
23262;SDS011;11800;49.830;9.922;2022-07-22T09:40:17;0.10;;;0.10;;
23262;SDS011;11800;49.830;9.922;2022-07-22T09:42:54;0.10;;;0.10;;
23262;SDS011;11800;49.830;9.922;2022-07-22T09:45:21;0.00;;;0.00;;
23262;SDS011;11800;49.830;9.922;2022-07-22T09:47:48;0.10;;;0.10;;
23262;SDS011;11800;49.830;9.922;2022-07-22T09:50:15;0.10;;;0.10;;
23262;SDS011;11800;49.830;9.922;2022-07-22T09:52:42;0.10;;;0.10;;
23262;SDS011;11800;49.830;9.922;2022-07-22T09:55:08;0.10;;;0.10;;
23262;SDS011;11800;49.830;9.922;2022-07-22T09:57:35;0.05;;;0.05;;
23262;SDS011;11800;49.830;9.922;2022-07-22T10:00:01;0.10;;;0.10;;
23262;SDS011;11800;49.830;9.922;2022-07-22T10:02:27;0.00;;;0.00;;
23262;SDS011;11800;49.830;9.922;2022-07-22T10:04:54;0.10;;;0.10;;
23262;SDS011;11800;49.830;9.922;2022-07-22T10:07:21;0.10;;;0.10;;
23262;SDS011;11800;49.830;9.922;2022-07-22T10:09:48;0.10;;;0.10;;
23262;SDS011;11800;49.830;9.922;2022-07-22T10:12:16;0.10;;;0.10;;
23262;SDS011;11800;49.830;9.922;2022-07-22T10:14:43;0.10;;;0.10;;
23262;SDS011;11800;49.830;9.922;2022-07-22T10:17:12;0.10;;;0.10;;
23262;SDS011;11800;49.830;9.922;2022-07-22T10:19:38;0.10;;;0.10;;
23262;SDS011;11800;49.830;9.922;2022-07-22T10:22:04;0.10;;;0.10;;
23262;SDS011;11800;49.830;9.922;2022-07-22T10:24:30;0.10;;;0.10;;
23262;SDS011;11800;49.830;9.922;2022-07-22T10:26:56;0.10;;;0.10;;
23262;SDS011;11800;49.830;9.922;2022-07-22T10:29:27;0.10;;;0.10;;
23262;SDS011;11800;49.830;9.922;2022-07-22T10:32:19;0.03;;;0.03;;
23262;SDS011;11800;49.830;9.922;2022-07-22T10:40:09;0.10;;;0.10;;
23262;SDS011;11800;49.830;9.922;2022-07-22T10:45:21;0.10;;;0.10;;
23262;SDS011;11800;49.830;9.922;2022-07-22T10:47:51;0.10;;;0.10;;
23262;SDS011;11800;49.830;9.922;2022-07-22T10:52:56;0.10;;;0.10;;
23262;SDS011;11800;49.830;9.922;2022-07-22T10:55:22;0.10;;;0.10;;
23262;SDS011;11800;49.830;9.922;2022-07-22T10:57:48;0.10;;;0.10;;
23262;SDS011;11800;49.830;9.922;2022-07-22T11:00:15;0.10;;;0.10;;
23262;SDS011;11800;49.830;9.922;2022-07-22T11:02:41;0.10;;;0.10;;
23262;SDS011;11800;49.830;9.922;2022-07-22T11:05:07;0.10;;;0.10;;
23262;SDS011;11800;49.830;9.922;2022-07-22T11:07:33;0.08;;;0.08;;
23262;SDS011;11800;49.830;9.922;2022-07-22T11:10:12;0.10;;;0.10;;
23262;SDS011;11800;49.830;9.922;2022-07-22T11:12:39;0.10;;;0.10;;
23262;SDS011;11800;49.830;9.922;2022-07-22T11:15:05;0.10;;;0.10;;
23262;SDS011;11800;49.830;9.922;2022-07-22T11:17:32;0.10;;;0.10;;
23262;SDS011;11800;49.830;9.922;2022-07-22T11:20:02;0.10;;;0.10;;
23262;SDS011;11800;49.830;9.922;2022-07-22T11:22:29;0.10;;;0.10;;
23262;SDS011;11800;49.830;9.922;2022-07-22T11:24:55;0.10;;;0.10;;
23262;SDS011;11800;49.830;9.922;2022-07-22T11:27:22;0.03;;;0.03;;
23262;SDS011;11800;49.830;9.922;2022-07-22T11:29:50;0.10;;;0.10;;
23262;SDS011;11800;49.830;9.922;2022-07-22T11:32:17;0.10;;;0.10;;
23262;SDS011;11800;49.830;9.922;2022-07-22T11:34:44;0.10;;;0.10;;
23262;SDS011;11800;49.830;9.922;2022-07-22T11:37:11;0.10;;;0.10;;
23262;SDS011;11800;49.830;9.922;2022-07-22T11:39:37;0.10;;;0.10;;
23262;SDS011;11800;49.830;9.922;2022-07-22T11:42:04;0.10;;;0.10;;
23262;SDS011;11800;49.830;9.922;2022-07-22T11:44:31;0.10;;;0.10;;
23262;SDS011;11800;49.830;9.922;2022-07-22T11:46:58;0.10;;;0.10;;
23262;SDS011;11800;49.830;9.922;2022-07-22T11:49:26;0.10;;;0.10;;
23262;SDS011;11800;49.830;9.922;2022-07-22T11:51:53;0.10;;;0.10;;
23262;SDS011;11800;49.830;9.922;2022-07-22T11:54:20;0.10;;;0.10;;
23262;SDS011;11800;49.830;9.922;2022-07-22T11:56:46;0.10;;;0.10;;
23262;SDS011;11800;49.830;9.922;2022-07-22T11:59:13;0.10;;;0.10;;
23262;SDS011;11800;49.830;9.922;2022-07-22T12:01:40;0.10;;;0.10;;
23262;SDS011;11800;49.830;9.922;2022-07-22T12:04:07;0.10;;;0.10;;
23262;SDS011;11800;49.830;9.922;2022-07-22T12:06:35;0.10;;;0.10;;
23262;SDS011;11800;49.830;9.922;2022-07-22T12:09:16;0.10;;;0.10;;
23262;SDS011;11800;49.830;9.922;2022-07-22T12:11:43;0.10;;;0.10;;
23262;SDS011;11800;49.830;9.922;2022-07-22T12:14:13;0.10;;;0.10;;
23262;SDS011;11800;49.830;9.922;2022-07-22T12:16:40;0.10;;;0.10;;
23262;SDS011;11800;49.830;9.922;2022-07-22T12:19:07;0.10;;;0.10;;
23262;SDS011;11800;49.830;9.922;2022-07-22T12:21:34;0.10;;;0.10;;
23262;SDS011;11800;49.830;9.922;2022-07-22T12:26:40;0.10;;;0.10;;
23262;SDS011;11800;49.830;9.922;2022-07-22T12:31:49;0.10;;;0.10;;
23262;SDS011;11800;49.830;9.922;2022-07-22T12:34:15;0.10;;;0.10;;
23262;SDS011;11800;49.830;9.922;2022-07-22T12:36:45;0.10;;;0.10;;
23262;SDS011;11800;49.830;9.922;2022-07-22T12:39:16;0.10;;;0.10;;
23262;SDS011;11800;49.830;9.922;2022-07-22T12:41:52;0.10;;;0.10;;
23262;SDS011;11800;49.830;9.922;2022-07-22T12:44:19;0.10;;;0.10;;
23262;SDS011;11800;49.830;9.922;2022-07-22T12:46:47;0.10;;;0.10;;
23262;SDS011;11800;49.830;9.922;2022-07-22T12:49:14;0.10;;;0.10;;
23262;SDS011;11800;49.830;9.922;2022-07-22T12:51:40;0.10;;;0.10;;
23262;SDS011;11800;49.830;9.922;2022-07-22T12:54:06;0.10;;;0.10;;
23262;SDS011;11800;49.830;9.922;2022-07-22T12:56:32;0.10;;;0.10;;
23262;SDS011;11800;49.830;9.922;2022-07-22T12:58:59;0.05;;;0.05;;
23262;SDS011;11800;49.830;9.922;2022-07-22T13:01:26;0.10;;;0.10;;
23262;SDS011;11800;49.830;9.922;2022-07-22T13:03:52;0.10;;;0.10;;
23262;SDS011;11800;49.830;9.922;2022-07-22T13:06:18;0.10;;;0.10;;
23262;SDS011;11800;49.830;9.922;2022-07-22T13:08:44;0.10;;;0.10;;
23262;SDS011;11800;49.830;9.922;2022-07-22T13:11:10;0.10;;;0.10;;
23262;SDS011;11800;49.830;9.922;2022-07-22T13:13:36;0.10;;;0.10;;
23262;SDS011;11800;49.830;9.922;2022-07-22T13:16:02;0.10;;;0.10;;
23262;SDS011;11800;49.830;9.922;2022-07-22T13:18:28;0.10;;;0.10;;
23262;SDS011;11800;49.830;9.922;2022-07-22T13:20:54;0.10;;;0.10;;
23262;SDS011;11800;49.830;9.922;2022-07-22T13:23:20;0.10;;;0.10;;
23262;SDS011;11800;49.830;9.922;2022-07-22T13:25:47;0.10;;;0.10;;
23262;SDS011;11800;49.830;9.922;2022-07-22T13:28:13;0.10;;;0.10;;
23262;SDS011;11800;49.830;9.922;2022-07-22T13:30:39;0.10;;;0.10;;
23262;SDS011;11800;49.830;9.922;2022-07-22T13:33:05;0.10;;;0.10;;
23262;SDS011;11800;49.830;9.922;2022-07-22T13:35:32;0.17;;;0.17;;
23262;SDS011;11800;49.830;9.922;2022-07-22T13:37:58;0.10;;;0.10;;
23262;SDS011;11800;49.830;9.922;2022-07-22T13:40:24;0.10;;;0.10;;
23262;SDS011;11800;49.830;9.922;2022-07-22T13:42:50;0.10;;;0.10;;
23262;SDS011;11800;49.830;9.922;2022-07-22T13:45:16;0.10;;;0.10;;
23262;SDS011;11800;49.830;9.922;2022-07-22T13:47:42;0.10;;;0.10;;
23262;SDS011;11800;49.830;9.922;2022-07-22T13:50:08;0.10;;;0.10;;
23262;SDS011;11800;49.830;9.922;2022-07-22T13:52:34;0.10;;;0.10;;
23262;SDS011;11800;49.830;9.922;2022-07-22T13:55:01;0.10;;;0.10;;
23262;SDS011;11800;49.830;9.922;2022-07-22T13:57:27;0.10;;;0.10;;
23262;SDS011;11800;49.830;9.922;2022-07-22T13:59:53;0.10;;;0.10;;
23262;SDS011;11800;49.830;9.922;2022-07-22T14:02:19;0.20;;;0.20;;
23262;SDS011;11800;49.830;9.922;2022-07-22T14:04:45;0.20;;;0.20;;
23262;SDS011;11800;49.830;9.922;2022-07-22T14:07:11;0.10;;;0.10;;
23262;SDS011;11800;49.830;9.922;2022-07-22T14:09:37;0.10;;;0.10;;
23262;SDS011;11800;49.830;9.922;2022-07-22T14:12:03;0.15;;;0.15;;
23262;SDS011;11800;49.830;9.922;2022-07-22T14:14:29;0.20;;;0.20;;
23262;SDS011;11800;49.830;9.922;2022-07-22T14:16:55;0.20;;;0.20;;
23262;SDS011;11800;49.830;9.922;2022-07-22T14:19:21;0.20;;;0.20;;
23262;SDS011;11800;49.830;9.922;2022-07-22T14:21:47;0.20;;;0.20;;
23262;SDS011;11800;49.830;9.922;2022-07-22T14:24:14;0.40;;;0.40;;
23262;SDS011;11800;49.830;9.922;2022-07-22T14:26:40;0.40;;;0.40;;
23262;SDS011;11800;49.830;9.922;2022-07-22T14:29:07;0.40;;;0.40;;
23262;SDS011;11800;49.830;9.922;2022-07-22T14:31:33;0.30;;;0.30;;
23262;SDS011;11800;49.830;9.922;2022-07-22T14:34:00;0.40;;;0.40;;
23262;SDS011;11800;49.830;9.922;2022-07-22T14:36:26;0.40;;;0.40;;
23262;SDS011;11800;49.830;9.922;2022-07-22T14:38:52;0.50;;;0.50;;
23262;SDS011;11800;49.830;9.922;2022-07-22T14:41:21;0.50;;;0.50;;
23262;SDS011;11800;49.830;9.922;2022-07-22T14:43:47;0.50;;;0.50;;
23262;SDS011;11800;49.830;9.922;2022-07-22T14:46:13;0.60;;;0.60;;
23262;SDS011;11800;49.830;9.922;2022-07-22T14:48:40;0.60;;;0.60;;
23262;SDS011;11800;49.830;9.922;2022-07-22T14:51:06;0.70;;;0.70;;
23262;SDS011;11800;49.830;9.922;2022-07-22T14:53:32;0.70;;;0.70;;
23262;SDS011;11800;49.830;9.922;2022-07-22T14:55:58;0.60;;;0.60;;
23262;SDS011;11800;49.830;9.922;2022-07-22T14:58:24;0.60;;;0.60;;
23262;SDS011;11800;49.830;9.922;2022-07-22T15:00:50;0.40;;;0.40;;
23262;SDS011;11800;49.830;9.922;2022-07-22T15:03:17;0.30;;;0.30;;